Terminal Aerodrome Forecast
Issued by NWS

Home | Current Version | Previous Version | Text Only | Print | Product List | Glossary On
Versions: 1 2 3 4 5 6 7 8 9 10 11 12 13 14 15 16 17 18 19 20 21 22 23 24 25 26
000
FTUS41 KGYX 282004 AAA
TAFPSM
TAF AMD
KPSM 282004Z 2820/2918 28012KT P6SM SCT035
     FM282100 31011KT P6SM OVC100
     FM290000 32004KT P6SM SKC=

USA.gov is the U.S. government's official web portal to all federal, state and local government web resources and services.